sensor_id;sensor_type;location;lat;lon;timestamp;pressure;altitude;pressure_sealevel;temperature;humidity
55550;BME280;41397;49.972;18.944;2023-02-22T00:01:14;101880.12;;;11.33;61.30
55550;BME280;41397;49.972;18.944;2023-02-22T00:04:29;101874.86;;;11.30;61.16
55550;BME280;41397;49.972;18.944;2023-02-22T00:07:30;101888.77;;;11.27;61.51
55550;BME280;41397;49.972;18.944;2023-02-22T00:10:31;101886.20;;;11.24;61.71
55550;BME280;41397;49.972;18.944;2023-02-22T00:13:34;101890.93;;;11.22;61.58
55550;BME280;41397;49.972;18.944;2023-02-22T00:16:36;101888.27;;;11.20;61.71
55550;BME280;41397;49.972;18.944;2023-02-22T00:19:37;101885.76;;;11.17;61.63
55550;BME280;41397;49.972;18.944;2023-02-22T00:26:21;101889.69;;;11.13;61.77
55550;BME280;41397;49.972;18.944;2023-02-22T00:29:24;101891.64;;;11.11;61.50
55550;BME280;41397;49.972;18.944;2023-02-22T00:32:26;101889.77;;;11.11;61.51
55550;BME280;41397;49.972;18.944;2023-02-22T00:35:29;101887.04;;;11.11;61.73
55550;BME280;41397;49.972;18.944;2023-02-22T00:38:31;101892.59;;;11.10;61.40
55550;BME280;41397;49.972;18.944;2023-02-22T00:41:32;101892.72;;;11.08;61.22
55550;BME280;41397;49.972;18.944;2023-02-22T00:44:34;101897.32;;;11.08;61.44
55550;BME280;41397;49.972;18.944;2023-02-22T00:47:35;101896.33;;;11.09;61.12
55550;BME280;41397;49.972;18.944;2023-02-22T00:50:36;101897.20;;;11.09;60.93
55550;BME280;41397;49.972;18.944;2023-02-22T00:53:38;101892.80;;;11.07;60.98
55550;BME280;41397;49.972;18.944;2023-02-22T00:56:39;101902.02;;;11.06;61.29
55550;BME280;41397;49.972;18.944;2023-02-22T00:59:41;101892.14;;;11.03;60.96
55550;BME280;41397;49.972;18.944;2023-02-22T01:02:43;101894.01;;;11.03;61.11
55550;BME280;41397;49.972;18.944;2023-02-22T01:05:45;101886.88;;;11.00;61.28
55550;BME280;41397;49.972;18.944;2023-02-22T01:08:49;101897.04;;;10.98;61.10
55550;BME280;41397;49.972;18.944;2023-02-22T01:11:54;101893.63;;;10.95;61.14
55550;BME280;41397;49.972;18.944;2023-02-22T01:14:56;101897.16;;;10.97;60.95
55550;BME280;41397;49.972;18.944;2023-02-22T01:17:58;101895.49;;;10.94;60.86
55550;BME280;41397;49.972;18.944;2023-02-22T01:21:00;101894.80;;;10.91;60.92
55550;BME280;41397;49.972;18.944;2023-02-22T01:24:02;101897.86;;;10.86;60.99
55550;BME280;41397;49.972;18.944;2023-02-22T01:27:03;101891.48;;;10.85;61.25
55550;BME280;41397;49.972;18.944;2023-02-22T01:30:06;101881.94;;;10.78;61.45
55550;BME280;41397;49.972;18.944;2023-02-22T01:33:08;101895.41;;;10.81;61.27
55550;BME280;41397;49.972;18.944;2023-02-22T01:36:12;101892.01;;;10.78;61.11
55550;BME280;41397;49.972;18.944;2023-02-22T01:39:15;101890.35;;;10.75;61.23
55550;BME280;41397;49.972;18.944;2023-02-22T01:42:18;101886.04;;;10.71;61.30
55550;BME280;41397;49.972;18.944;2023-02-22T01:48:50;101879.23;;;10.64;61.43
55550;BME280;41397;49.972;18.944;2023-02-22T01:51:49;101884.70;;;10.64;61.58
55550;BME280;41397;49.972;18.944;2023-02-22T01:54:56;101884.20;;;10.57;61.67
55550;BME280;41397;49.972;18.944;2023-02-22T01:57:59;101878.73;;;10.57;61.38
55550;BME280;41397;49.972;18.944;2023-02-22T02:01:01;101888.13;;;10.53;61.79
55550;BME280;41397;49.972;18.944;2023-02-22T02:04:06;101888.29;;;10.50;62.07
55550;BME280;41397;49.972;18.944;2023-02-22T02:07:12;101887.63;;;10.47;62.15
55550;BME280;41397;49.972;18.944;2023-02-22T02:10:17;101884.29;;;10.41;61.95
55550;BME280;41397;49.972;18.944;2023-02-22T02:13:19;101886.34;;;10.38;61.85
55550;BME280;41397;49.972;18.944;2023-02-22T02:16:38;101882.16;;;10.32;62.12
55550;BME280;41397;49.972;18.944;2023-02-22T02:35:55;101876.26;;;10.10;62.38
55550;BME280;41397;49.972;18.944;2023-02-22T02:42:21;101885.61;;;10.06;62.46
55550;BME280;41397;49.972;18.944;2023-02-22T02:45:32;101882.07;;;10.04;62.57
55550;BME280;41397;49.972;18.944;2023-02-22T02:48:39;101878.59;;;10.02;62.45
55550;BME280;41397;49.972;18.944;2023-02-22T02:51:47;101880.52;;;9.99;62.38
55550;BME280;41397;49.972;18.944;2023-02-22T02:54:53;101883.46;;;9.96;62.37
55550;BME280;41397;49.972;18.944;2023-02-22T02:57:55;101878.95;;;9.95;62.75
55550;BME280;41397;49.972;18.944;2023-02-22T03:01:00;101885.31;;;9.96;62.90
55550;BME280;41397;49.972;18.944;2023-02-22T03:04:17;101883.65;;;9.93;62.61
55550;BME280;41397;49.972;18.944;2023-02-22T03:10:42;101892.91;;;9.91;62.94
55550;BME280;41397;49.972;18.944;2023-02-22T03:13:52;101897.59;;;9.89;62.88
55550;BME280;41397;49.972;18.944;2023-02-22T03:26:53;101903.44;;;9.83;63.25
55550;BME280;41397;49.972;18.944;2023-02-22T03:30:03;101905.45;;;9.79;63.30
55550;BME280;41397;49.972;18.944;2023-02-22T03:33:25;101902.83;;;9.77;63.20
55550;BME280;41397;49.972;18.944;2023-02-22T03:36:25;101902.90;;;9.76;63.25
55550;BME280;41397;49.972;18.944;2023-02-22T03:39:29;101906.70;;;9.73;62.97
55550;BME280;41397;49.972;18.944;2023-02-22T03:42:34;101896.84;;;9.71;63.23
55550;BME280;41397;49.972;18.944;2023-02-22T03:45:38;101908.75;;;9.70;63.46
55550;BME280;41397;49.972;18.944;2023-02-22T03:48:50;101906.29;;;9.65;63.61
55550;BME280;41397;49.972;18.944;2023-02-22T03:51:54;101908.06;;;9.66;63.84
55550;BME280;41397;49.972;18.944;2023-02-22T03:54:56;101907.08;;;9.67;63.57
55550;BME280;41397;49.972;18.944;2023-02-22T03:57:59;101908.06;;;9.66;63.68
55550;BME280;41397;49.972;18.944;2023-02-22T04:01:04;101912.73;;;9.64;64.09
55550;BME280;41397;49.972;18.944;2023-02-22T04:04:10;101916.45;;;9.63;63.95
55550;BME280;41397;49.972;18.944;2023-02-22T04:07:12;101909.20;;;9.62;63.92
55550;BME280;41397;49.972;18.944;2023-02-22T04:10:14;101916.26;;;9.66;64.13
55550;BME280;41397;49.972;18.944;2023-02-22T04:13:16;101919.07;;;9.65;63.93
55550;BME280;41397;49.972;18.944;2023-02-22T04:16:18;101923.73;;;9.63;64.07
55550;BME280;41397;49.972;18.944;2023-02-22T04:19:20;101918.27;;;9.63;64.01
55550;BME280;41397;49.972;18.944;2023-02-22T04:22:21;101915.65;;;9.61;64.19
55550;BME280;41397;49.972;18.944;2023-02-22T04:25:23;101914.77;;;9.61;64.10
55550;BME280;41397;49.972;18.944;2023-02-22T04:28:26;101916.79;;;9.57;64.07
55550;BME280;41397;49.972;18.944;2023-02-22T04:31:28;101917.70;;;9.58;64.26
55550;BME280;41397;49.972;18.944;2023-02-22T04:34:29;101906.85;;;9.56;64.02
55550;BME280;41397;49.972;18.944;2023-02-22T04:37:31;101914.24;;;9.54;64.13
55550;BME280;41397;49.972;18.944;2023-02-22T04:40:35;101909.77;;;9.53;64.06
55550;BME280;41397;49.972;18.944;2023-02-22T04:43:36;101918.91;;;9.52;63.85
55550;BME280;41397;49.972;18.944;2023-02-22T04:46:37;101913.74;;;9.47;63.87
55550;BME280;41397;49.972;18.944;2023-02-22T04:49:39;101922.12;;;9.44;63.82
55550;BME280;41397;49.972;18.944;2023-02-22T04:52:43;101915.94;;;9.41;64.09
55550;BME280;41397;49.972;18.944;2023-02-22T04:55:45;101911.46;;;9.40;63.95
55550;BME280;41397;49.972;18.944;2023-02-22T04:58:46;101916.23;;;9.36;63.98
55550;BME280;41397;49.972;18.944;2023-02-22T05:01:48;101921.76;;;9.34;64.30
55550;BME280;41397;49.972;18.944;2023-02-22T05:04:51;101915.70;;;9.29;64.30
55550;BME280;41397;49.972;18.944;2023-02-22T05:07:52;101906.88;;;9.24;63.97
55550;BME280;41397;49.972;18.944;2023-02-22T05:10:54;101918.61;;;9.26;64.11
55550;BME280;41397;49.972;18.944;2023-02-22T05:13:55;101912.34;;;9.24;64.21
55550;BME280;41397;49.972;18.944;2023-02-22T05:17:21;101909.91;;;9.20;63.93
55550;BME280;41397;49.972;18.944;2023-02-22T05:24:07;101916.61;;;9.14;63.89
55550;BME280;41397;49.972;18.944;2023-02-22T05:27:15;101919.41;;;9.13;63.74
55550;BME280;41397;49.972;18.944;2023-02-22T05:34:01;101923.45;;;9.05;63.99
55550;BME280;41397;49.972;18.944;2023-02-22T05:37:13;101914.49;;;9.03;63.96
55550;BME280;41397;49.972;18.944;2023-02-22T05:50:57;101932.43;;;8.92;63.61
55550;BME280;41397;49.972;18.944;2023-02-22T05:54:14;101935.25;;;8.90;63.54
55550;BME280;41397;49.972;18.944;2023-02-22T05:57:15;101937.18;;;8.88;63.63
55550;BME280;41397;49.972;18.944;2023-02-22T06:03:42;101945.37;;;8.88;63.93
55550;BME280;41397;49.972;18.944;2023-02-22T06:06:48;101952.75;;;8.86;63.62
55550;BME280;41397;49.972;18.944;2023-02-22T06:09:50;101951.87;;;8.85;64.14
55550;BME280;41397;49.972;18.944;2023-02-22T06:16:17;101963.48;;;8.89;64.46
55550;BME280;41397;49.972;18.944;2023-02-22T06:19:18;101968.93;;;8.89;64.87
55550;BME280;41397;49.972;18.944;2023-02-22T06:22:20;101964.38;;;8.89;64.80
55550;BME280;41397;49.972;18.944;2023-02-22T06:25:24;101971.42;;;8.94;65.26
55550;BME280;41397;49.972;18.944;2023-02-22T06:28:26;101982.96;;;8.99;65.38
55550;BME280;41397;49.972;18.944;2023-02-22T06:31:27;101985.51;;;9.02;65.65
55550;BME280;41397;49.972;18.944;2023-02-22T06:34:28;101989.84;;;9.06;65.87
55550;BME280;41397;49.972;18.944;2023-02-22T06:37:30;101995.13;;;9.09;66.16
55550;BME280;41397;49.972;18.944;2023-02-22T06:40:31;101993.02;;;9.14;66.44
55550;BME280;41397;49.972;18.944;2023-02-22T06:43:33;101994.59;;;9.18;66.60
55550;BME280;41397;49.972;18.944;2023-02-22T06:46:35;102000.75;;;9.22;66.57
55550;BME280;41397;49.972;18.944;2023-02-22T06:49:36;102003.23;;;9.26;66.42
55550;BME280;41397;49.972;18.944;2023-02-22T06:52:41;102002.17;;;9.29;66.53
55550;BME280;41397;49.972;18.944;2023-02-22T06:55:43;102003.67;;;9.34;66.79
55550;BME280;41397;49.972;18.944;2023-02-22T06:58:45;101999.88;;;9.37;67.15
55550;BME280;41397;49.972;18.944;2023-02-22T07:01:47;102016.78;;;9.44;67.24
55550;BME280;41397;49.972;18.944;2023-02-22T07:04:48;102014.77;;;9.47;67.38
55550;BME280;41397;49.972;18.944;2023-02-22T07:07:51;102017.32;;;9.50;67.58
55550;BME280;41397;49.972;18.944;2023-02-22T07:10:53;102022.62;;;9.53;66.69
55550;BME280;41397;49.972;18.944;2023-02-22T07:13:55;102021.47;;;9.58;67.08
55550;BME280;41397;49.972;18.944;2023-02-22T07:16:56;102019.26;;;9.64;67.60
55550;BME280;41397;49.972;18.944;2023-02-22T07:19:58;102023.66;;;9.67;67.39
55550;BME280;41397;49.972;18.944;2023-02-22T07:23:00;102022.23;;;9.75;67.59
55550;BME280;41397;49.972;18.944;2023-02-22T07:26:02;102011.99;;;9.79;67.77
55550;BME280;41397;49.972;18.944;2023-02-22T07:29:05;102011.30;;;9.75;67.77
55550;BME280;41397;49.972;18.944;2023-02-22T07:32:07;102016.40;;;9.82;67.57
55550;BME280;41397;49.972;18.944;2023-02-22T07:35:15;102015.16;;;9.87;67.70
55550;BME280;41397;49.972;18.944;2023-02-22T07:38:21;102012.85;;;9.95;67.69
55550;BME280;41397;49.972;18.944;2023-02-22T07:41:22;102024.20;;;10.04;67.76
55550;BME280;41397;49.972;18.944;2023-02-22T07:44:24;102015.05;;;10.05;67.98
55550;BME280;41397;49.972;18.944;2023-02-22T07:47:25;102009.47;;;10.06;67.92
55550;BME280;41397;49.972;18.944;2023-02-22T07:50:30;102019.00;;;10.15;68.23
55550;BME280;41397;49.972;18.944;2023-02-22T07:53:33;102004.08;;;10.20;68.54
55550;BME280;41397;49.972;18.944;2023-02-22T07:56:34;102014.39;;;10.31;68.31
55550;BME280;41397;49.972;18.944;2023-02-22T07:59:36;102015.95;;;10.35;68.61
55550;BME280;41397;49.972;18.944;2023-02-22T08:02:37;102017.53;;;10.39;68.44
55550;BME280;41397;49.972;18.944;2023-02-22T08:05:41;102018.89;;;10.47;68.26
55550;BME280;41397;49.972;18.944;2023-02-22T08:08:43;102012.74;;;10.43;68.61
55550;BME280;41397;49.972;18.944;2023-02-22T08:11:50;102008.83;;;10.47;68.57
55550;BME280;41397;49.972;18.944;2023-02-22T08:18:10;102011.77;;;10.58;69.24
55550;BME280;41397;49.972;18.944;2023-02-22T08:21:12;102020.10;;;10.71;68.85
55550;BME280;41397;49.972;18.944;2023-02-22T08:24:13;102013.95;;;10.82;68.76
55550;BME280;41397;49.972;18.944;2023-02-22T08:27:14;102009.66;;;10.92;68.71
55550;BME280;41397;49.972;18.944;2023-02-22T08:30:20;102018.16;;;10.87;68.11
55550;BME280;41397;49.972;18.944;2023-02-22T08:33:22;102018.16;;;10.87;67.34
55550;BME280;41397;49.972;18.944;2023-02-22T08:36:25;102021.41;;;10.94;67.38
55550;BME280;41397;49.972;18.944;2023-02-22T08:39:29;102021.79;;;11.02;67.39
55550;BME280;41397;49.972;18.944;2023-02-22T08:42:30;102021.27;;;11.10;67.43
55550;BME280;41397;49.972;18.944;2023-02-22T08:45:32;102010.53;;;11.21;67.28
55550;BME280;41397;49.972;18.944;2023-02-22T08:48:34;102028.10;;;11.31;67.23
55550;BME280;41397;49.972;18.944;2023-02-22T08:51:36;102018.73;;;11.36;66.82
55550;BME280;41397;49.972;18.944;2023-02-22T08:58:17;102020.34;;;11.52;66.08
55550;BME280;41397;49.972;18.944;2023-02-22T09:01:18;102020.05;;;11.57;65.97
55550;BME280;41397;49.972;18.944;2023-02-22T09:04:25;102026.86;;;11.64;66.45
55550;BME280;41397;49.972;18.944;2023-02-22T09:07:26;102028.10;;;11.73;65.44
55550;BME280;41397;49.972;18.944;2023-02-22T09:10:31;102023.19;;;11.78;65.55
55550;BME280;41397;49.972;18.944;2023-02-22T09:13:39;102024.38;;;11.88;65.65
55550;BME280;41397;49.972;18.944;2023-02-22T09:16:52;102028.25;;;11.98;65.54
55550;BME280;41397;49.972;18.944;2023-02-22T09:20:04;102029.56;;;12.06;65.36
55550;BME280;41397;49.972;18.944;2023-02-22T09:23:22;102026.47;;;11.97;64.87
55550;BME280;41397;49.972;18.944;2023-02-22T09:26:47;102028.39;;;12.10;65.17
55550;BME280;41397;49.972;18.944;2023-02-22T09:33:51;102027.48;;;12.36;63.66
55550;BME280;41397;49.972;18.944;2023-02-22T09:37:19;102020.00;;;12.38;62.23
55550;BME280;41397;49.972;18.944;2023-02-22T09:40:38;102017.18;;;12.53;62.16
55550;BME280;41397;49.972;18.944;2023-02-22T09:46:57;102015.20;;;12.68;61.37
55550;BME280;41397;49.972;18.944;2023-02-22T09:50:19;102014.12;;;12.83;60.32
55550;BME280;41397;49.972;18.944;2023-02-22T09:53:35;102017.18;;;12.78;59.08
55550;BME280;41397;49.972;18.944;2023-02-22T09:56:56;102007.72;;;12.95;59.40
55550;BME280;41397;49.972;18.944;2023-02-22T10:10:53;102002.23;;;13.08;52.62
55550;BME280;41397;49.972;18.944;2023-02-22T10:31:20;101995.77;;;12.71;53.48
55550;BME280;41397;49.972;18.944;2023-02-22T10:34:26;101994.35;;;12.78;52.26
55550;BME280;41397;49.972;18.944;2023-02-22T10:37:32;101988.54;;;12.82;52.25
55550;BME280;41397;49.972;18.944;2023-02-22T10:40:36;101992.57;;;12.89;51.06
55550;BME280;41397;49.972;18.944;2023-02-22T10:43:40;101995.77;;;12.96;52.48
55550;BME280;41397;49.972;18.944;2023-02-22T10:46:45;101995.31;;;13.02;53.44
55550;BME280;41397;49.972;18.944;2023-02-22T10:53:16;101980.81;;;13.00;53.54
55550;BME280;41397;49.972;18.944;2023-02-22T10:56:25;101971.70;;;13.13;53.07
55550;BME280;41397;49.972;18.944;2023-02-22T10:59:35;101976.49;;;13.22;53.03
55550;BME280;41397;49.972;18.944;2023-02-22T11:02:38;101977.13;;;13.38;53.68
55550;BME280;41397;49.972;18.944;2023-02-22T11:05:39;101980.48;;;13.54;53.38
55550;BME280;41397;49.972;18.944;2023-02-22T11:15:44;101967.04;;;13.63;50.43
55550;BME280;41397;49.972;18.944;2023-02-22T11:22:40;101968.05;;;13.62;50.08
55550;BME280;41397;49.972;18.944;2023-02-22T11:47:00;101963.91;;;13.56;49.05
55550;BME280;41397;49.972;18.944;2023-02-22T11:50:21;101957.92;;;13.62;48.43
55550;BME280;41397;49.972;18.944;2023-02-22T11:56:44;101951.70;;;13.71;47.97
55550;BME280;41397;49.972;18.944;2023-02-22T12:20:55;101944.51;;;13.82;48.89
55550;BME280;41397;49.972;18.944;2023-02-22T12:24:08;101946.40;;;13.81;49.49
55550;BME280;41397;49.972;18.944;2023-02-22T12:27:32;101950.30;;;13.90;49.64
55550;BME280;41397;49.972;18.944;2023-02-22T12:30:33;101942.92;;;13.90;49.60
55550;BME280;41397;49.972;18.944;2023-02-22T12:33:48;101942.16;;;13.88;49.06
55550;BME280;41397;49.972;18.944;2023-02-22T13:04:55;101937.38;;;13.79;48.26
55550;BME280;41397;49.972;18.944;2023-02-22T13:11:57;101930.73;;;13.70;48.24
55550;BME280;41397;49.972;18.944;2023-02-22T13:14:52;101931.35;;;13.74;48.28
55550;BME280;41397;49.972;18.944;2023-02-22T13:24:27;101927.10;;;13.70;49.00
55550;BME280;41397;49.972;18.944;2023-02-22T13:47:23;101922.30;;;13.61;48.13
55550;BME280;41397;49.972;18.944;2023-02-22T13:56:56;101929.38;;;13.76;48.46
55550;BME280;41397;49.972;18.944;2023-02-22T14:06:36;101919.83;;;13.69;48.06
55550;BME280;41397;49.972;18.944;2023-02-22T14:09:47;101924.06;;;13.62;48.24
55550;BME280;41397;49.972;18.944;2023-02-22T14:26:56;101924.70;;;13.65;48.73
55550;BME280;41397;49.972;18.944;2023-02-22T14:29:59;101928.45;;;13.64;48.15
55550;BME280;41397;49.972;18.944;2023-02-22T14:47:06;101927.69;;;13.62;48.38
55550;BME280;41397;49.972;18.944;2023-02-22T14:50:20;101925.04;;;13.61;48.52
55550;BME280;41397;49.972;18.944;2023-02-22T14:56:50;101916.98;;;13.46;48.73
55550;BME280;41397;49.972;18.944;2023-02-22T15:00:00;101918.91;;;13.33;49.25
55550;BME280;41397;49.972;18.944;2023-02-22T15:37:18;101931.99;;;12.80;50.63
55550;BME280;41397;49.972;18.944;2023-02-22T15:40:25;101922.76;;;12.68;50.62
55550;BME280;41397;49.972;18.944;2023-02-22T15:43:34;101925.28;;;12.71;50.58
55550;BME280;41397;49.972;18.944;2023-02-22T15:46:37;101924.31;;;12.72;50.68
55550;BME280;41397;49.972;18.944;2023-02-22T15:49:39;101921.89;;;12.68;50.58
55550;BME280;41397;49.972;18.944;2023-02-22T15:52:48;101920.47;;;12.62;50.94
55550;BME280;41397;49.972;18.944;2023-02-22T15:55:59;101921.34;;;12.62;51.16
55550;BME280;41397;49.972;18.944;2023-02-22T15:59:12;101927.92;;;12.60;50.99
55550;BME280;41397;49.972;18.944;2023-02-22T16:02:28;101931.66;;;12.59;51.07
55550;BME280;41397;49.972;18.944;2023-02-22T16:08:57;101923.34;;;12.48;51.42
55550;BME280;41397;49.972;18.944;2023-02-22T16:12:08;101930.80;;;12.46;51.35
55550;BME280;41397;49.972;18.944;2023-02-22T16:15:16;101940.66;;;12.48;51.72
55550;BME280;41397;49.972;18.944;2023-02-22T16:18:26;101931.89;;;12.43;51.84
55550;BME280;41397;49.972;18.944;2023-02-22T16:21:48;101925.63;;;12.41;51.76
55550;BME280;41397;49.972;18.944;2023-02-22T16:24:42;101932.77;;;12.43;51.86
55550;BME280;41397;49.972;18.944;2023-02-22T16:27:56;101931.11;;;12.41;51.78
55550;BME280;41397;49.972;18.944;2023-02-22T16:31:02;101934.20;;;12.36;51.90
55550;BME280;41397;49.972;18.944;2023-02-22T16:34:07;101933.87;;;12.28;51.92
55550;BME280;41397;49.972;18.944;2023-02-22T16:37:20;101932.01;;;12.29;52.09
55550;BME280;41397;49.972;18.944;2023-02-22T16:42:04;101936.93;;;12.24;52.23
55550;BME280;41397;49.972;18.944;2023-02-22T16:45:15;101935.28;;;12.21;52.38
55550;BME280;41397;49.972;18.944;2023-02-22T16:48:24;101942.51;;;12.22;52.46
55550;BME280;41397;49.972;18.944;2023-02-22T16:51:27;101938.24;;;12.18;52.64
55550;BME280;41397;49.972;18.944;2023-02-22T16:54:42;101942.51;;;12.09;52.73
55550;BME280;41397;49.972;18.944;2023-02-22T16:57:50;101950.05;;;12.06;53.01
55550;BME280;41397;49.972;18.944;2023-02-22T17:00:55;101944.91;;;12.01;53.04
55550;BME280;41397;49.972;18.944;2023-02-22T17:03:57;101952.10;;;11.89;53.41
55550;BME280;41397;49.972;18.944;2023-02-22T17:06:59;101955.96;;;11.87;53.46
55550;BME280;41397;49.972;18.944;2023-02-22T17:10:03;101960.15;;;11.78;53.36
55550;BME280;41397;49.972;18.944;2023-02-22T17:13:05;101959.58;;;11.73;53.57
55550;BME280;41397;49.972;18.944;2023-02-22T17:16:12;101957.27;;;11.67;53.43
55550;BME280;41397;49.972;18.944;2023-02-22T17:19:21;101954.28;;;11.57;53.61
55550;BME280;41397;49.972;18.944;2023-02-22T17:22:23;101961.15;;;11.50;53.52
55550;BME280;41397;49.972;18.944;2023-02-22T17:25:31;101958.13;;;11.40;53.88
55550;BME280;41397;49.972;18.944;2023-02-22T17:28:35;101958.05;;;11.42;53.89
55550;BME280;41397;49.972;18.944;2023-02-22T17:31:36;101954.43;;;11.41;54.01
55550;BME280;41397;49.972;18.944;2023-02-22T17:34:38;101961.00;;;11.39;54.07
55550;BME280;41397;49.972;18.944;2023-02-22T17:37:40;101966.31;;;11.27;54.06
55550;BME280;41397;49.972;18.944;2023-02-22T17:40:42;101962.88;;;11.24;54.21
55550;BME280;41397;49.972;18.944;2023-02-22T17:43:48;101961.83;;;11.12;54.33
55550;BME280;41397;49.972;18.944;2023-02-22T17:46:51;101958.51;;;11.07;54.40
55550;BME280;41397;49.972;18.944;2023-02-22T17:49:58;101963.52;;;11.00;54.64
55550;BME280;41397;49.972;18.944;2023-02-22T17:53:02;101962.65;;;11.00;54.80
55550;BME280;41397;49.972;18.944;2023-02-22T17:56:11;101957.17;;;11.00;54.86
55550;BME280;41397;49.972;18.944;2023-02-22T17:59:13;101946.59;;;10.94;54.99
55550;BME280;41397;49.972;18.944;2023-02-22T18:02:14;101958.74;;;10.89;55.20
55550;BME280;41397;49.972;18.944;2023-02-22T18:05:17;101960.97;;;10.83;55.18
55550;BME280;41397;49.972;18.944;2023-02-22T18:08:22;101952.97;;;10.80;55.04
55550;BME280;41397;49.972;18.944;2023-02-22T18:11:37;101956.02;;;10.75;55.30
55550;BME280;41397;49.972;18.944;2023-02-22T18:14:41;101960.03;;;10.70;55.31
55550;BME280;41397;49.972;18.944;2023-02-22T18:21:12;101954.91;;;10.63;55.74
55550;BME280;41397;49.972;18.944;2023-02-22T18:24:22;101958.34;;;10.53;55.39
55550;BME280;41397;49.972;18.944;2023-02-22T18:27:27;101963.24;;;10.48;55.44
55550;BME280;41397;49.972;18.944;2023-02-22T18:30:37;101967.53;;;10.52;55.68
55550;BME280;41397;49.972;18.944;2023-02-22T18:33:48;101958.45;;;10.51;55.50
55550;BME280;41397;49.972;18.944;2023-02-22T18:37:08;101966.53;;;10.53;55.23
55550;BME280;41397;49.972;18.944;2023-02-22T18:40:33;101966.53;;;10.53;55.39
55550;BME280;41397;49.972;18.944;2023-02-22T18:43:50;101961.38;;;10.48;55.47
55550;BME280;41397;49.972;18.944;2023-02-22T18:47:00;101954.44;;;10.42;55.68
55550;BME280;41397;49.972;18.944;2023-02-22T18:50:01;101956.46;;;10.39;55.53
55550;BME280;41397;49.972;18.944;2023-02-22T18:53:03;101953.33;;;10.31;55.62
55550;BME280;41397;49.972;18.944;2023-02-22T18:56:20;101949.20;;;10.23;55.73
55550;BME280;41397;49.972;18.944;2023-02-22T18:59:21;101962.27;;;10.18;55.92
55550;BME280;41397;49.972;18.944;2023-02-22T19:02:23;101953.09;;;10.19;55.83
55550;BME280;41397;49.972;18.944;2023-02-22T19:05:31;101951.22;;;10.20;56.09
55550;BME280;41397;49.972;18.944;2023-02-22T19:08:39;101954.95;;;10.19;55.64
55550;BME280;41397;49.972;18.944;2023-02-22T19:11:48;101962.16;;;10.20;55.74
55550;BME280;41397;49.972;18.944;2023-02-22T19:15:05;101961.40;;;10.18;55.68
55550;BME280;41397;49.972;18.944;2023-02-22T19:18:12;101955.03;;;10.17;55.50
55550;BME280;41397;49.972;18.944;2023-02-22T19:21:19;101960.34;;;10.20;56.00
55550;BME280;41397;49.972;18.944;2023-02-22T19:24:26;101959.54;;;10.18;55.76
55550;BME280;41397;49.972;18.944;2023-02-22T19:27:29;101963.61;;;10.11;55.84
55550;BME280;41397;49.972;18.944;2023-02-22T19:30:32;101971.13;;;10.08;55.64
55550;BME280;41397;49.972;18.944;2023-02-22T19:33:34;101967.33;;;10.10;55.82
55550;BME280;41397;49.972;18.944;2023-02-22T19:36:42;101961.26;;;10.05;55.85
55550;BME280;41397;49.972;18.944;2023-02-22T19:39:48;101964.19;;;10.02;56.06
55550;BME280;41397;49.972;18.944;2023-02-22T19:46:18;101962.96;;;9.92;55.98
55550;BME280;41397;49.972;18.944;2023-02-22T19:52:52;101965.09;;;9.87;56.23
55550;BME280;41397;49.972;18.944;2023-02-22T19:56:16;101964.23;;;9.86;56.16
55550;BME280;41397;49.972;18.944;2023-02-22T19:59:37;101970.48;;;9.88;56.56
55550;BME280;41397;49.972;18.944;2023-02-22T20:02:56;101970.86;;;9.82;56.31
55550;BME280;41397;49.972;18.944;2023-02-22T20:06:07;101968.13;;;9.82;56.35
55550;BME280;41397;49.972;18.944;2023-02-22T20:09:13;101970.26;;;9.77;56.66
55550;BME280;41397;49.972;18.944;2023-02-22T20:12:17;101975.42;;;9.82;56.58
55550;BME280;41397;49.972;18.944;2023-02-22T20:15:19;101972.19;;;9.75;56.31
55550;BME280;41397;49.972;18.944;2023-02-22T20:18:26;101979.51;;;9.74;56.61
55550;BME280;41397;49.972;18.944;2023-02-22T20:21:32;101970.26;;;9.77;56.53
55550;BME280;41397;49.972;18.944;2023-02-22T20:32:05;101970.06;;;9.80;56.61
55550;BME280;41397;49.972;18.944;2023-02-22T20:49:23;101964.41;;;9.83;56.15
55550;BME280;41397;49.972;18.944;2023-02-22T20:52:55;101971.31;;;9.74;55.93
55550;BME280;41397;49.972;18.944;2023-02-22T21:06:47;101967.80;;;9.56;56.71
55550;BME280;41397;49.972;18.944;2023-02-22T21:09:49;101958.13;;;9.51;56.57
55550;BME280;41397;49.972;18.944;2023-02-22T21:12:56;101962.90;;;9.47;56.96
55550;BME280;41397;49.972;18.944;2023-02-22T21:16:00;101969.48;;;9.43;56.54
55550;BME280;41397;49.972;18.944;2023-02-22T21:19:16;101967.56;;;9.29;57.16
55550;BME280;41397;49.972;18.944;2023-02-22T21:22:28;101964.13;;;9.26;57.18
55550;BME280;41397;49.972;18.944;2023-02-22T21:25:36;101959.74;;;9.23;57.47
55550;BME280;41397;49.972;18.944;2023-02-22T21:28:38;101968.09;;;9.20;57.27
55550;BME280;41397;49.972;18.944;2023-02-22T21:31:40;101957.61;;;9.13;57.64
55550;BME280;41397;49.972;18.944;2023-02-22T21:34:41;101956.99;;;9.07;57.64
55550;BME280;41397;49.972;18.944;2023-02-22T21:37:42;101959.09;;;9.02;57.59
55550;BME280;41397;49.972;18.944;2023-02-22T21:40:46;101949.41;;;8.97;57.67
55550;BME280;41397;49.972;18.944;2023-02-22T21:43:59;101953.55;;;8.88;57.99
55550;BME280;41397;49.972;18.944;2023-02-22T21:47:06;101948.54;;;8.96;57.86
55550;BME280;41397;49.972;18.944;2023-02-22T21:50:08;101944.23;;;8.92;57.79
55550;BME280;41397;49.972;18.944;2023-02-22T21:53:10;101943.45;;;8.90;57.88